Time;durP1;ratioP1;P1;durP2;ratioP2;P2;SDS_P1;SDS_P2;PMS_P1;PMS_P2;Temp;Humidity;BMP_temperature;BMP_pressure;BME280_temperature;BME280_humidity;BME280_pressure;Samples;Min_cycle;Max_cycle;Signal;HPM_P1;HPM_P2
2021/12/20 00:00:38;;;;;;;27.05;19.23;;;7.10;64.80;;;;;;5014772;28;20022;-71
2021/12/20 00:03:05;;;;;;;29.98;18.13;;;7.10;64.80;;;;;;5014496;28;20494;-70
2021/12/20 00:05:31;;;;;;;31.92;20.10;;;7.00;64.80;;;;;;5014470;28;20454;-70
2021/12/20 00:07:58;;;;;;;27.65;18.17;;;7.00;64.70;;;;;;4996593;28;20114;-70
2021/12/20 00:10:23;;;;;;;29.63;19.00;;;7.00;64.90;;;;;;5014603;28;20034;-71
2021/12/20 00:12:50;;;;;;;25.77;18.27;;;7.00;64.50;;;;;;5014536;28;20049;-71
2021/12/20 00:15:17;;;;;;;28.80;18.88;;;6.90;64.50;;;;;;4997056;28;20030;-71
2021/12/20 00:17:43;;;;;;;24.67;18.20;;;6.90;64.70;;;;;;5014429;28;20022;-70
2021/12/20 00:20:10;;;;;;;28.83;18.33;;;7.00;65.00;;;;;;5014465;28;20037;-71
2021/12/20 00:22:36;;;;;;;28.48;18.73;;;7.00;65.90;;;;;;5014482;28;20054;-71
2021/12/20 00:25:03;;;;;;;28.05;18.95;;;7.00;65.10;;;;;;5014273;28;20360;-71
2021/12/20 00:27:29;;;;;;;28.02;18.48;;;7.00;64.80;;;;;;5014209;28;20526;-70
2021/12/20 00:29:55;;;;;;;26.85;18.70;;;7.00;64.80;;;;;;5014298;28;20034;-70
2021/12/20 00:32:20;;;;;;;32.35;20.27;;;7.00;64.90;;;;;;5014133;28;20433;-70
2021/12/20 00:34:46;;;;;;;26.70;18.65;;;7.00;64.90;;;;;;5014198;28;20022;-72
2021/12/20 00:42:43;;;;;;;35.35;25.33;;;6.80;65.20;;;;;;5014081;28;20434;-70
2021/12/20 00:45:11;;;;;;;37.95;26.73;;;6.70;65.30;;;;;;5014002;28;20113;-71
2021/12/20 00:47:37;;;;;;;38.90;28.10;;;6.70;65.60;;;;;;5013714;28;20025;-70
2021/12/20 00:50:08;;;;;;;39.70;27.90;;;6.60;65.80;;;;;;4996123;28;20054;-70
2021/12/20 00:52:33;;;;;;;39.38;28.35;;;6.50;65.70;;;;;;5013778;28;20033;-71
2021/12/20 00:54:59;;;;;;;42.78;27.33;;;6.50;66.20;;;;;;5012515;28;20395;-70
2021/12/20 00:57:25;;;;;;;41.50;27.10;;;6.40;66.40;;;;;;5013458;28;20395;-71
2021/12/20 00:59:51;;;;;;;39.58;27.38;;;6.40;66.90;;;;;;4995814;28;20030;-72
2021/12/20 01:02:17;;;;;;;38.33;27.10;;;6.50;66.60;;;;;;4995654;28;20472;-70
2021/12/20 01:04:43;;;;;;;42.03;27.70;;;6.50;66.60;;;;;;5013370;28;20026;-71
2021/12/20 01:07:09;;;;;;;36.83;26.73;;;6.40;66.70;;;;;;5013256;28;20037;-71
2021/12/20 01:09:35;;;;;;;40.30;25.73;;;6.40;67.00;;;;;;5013448;28;20060;-70
2021/12/20 01:12:06;;;;;;;39.08;26.55;;;6.40;66.80;;;;;;5013710;28;20624;-71
2021/12/20 01:14:35;;;;;;;36.17;25.13;;;6.50;67.30;;;;;;5013640;28;20483;-72
2021/12/20 01:17:05;;;;;;;35.05;24.23;;;6.50;67.10;;;;;;5013724;28;20063;-71
2021/12/20 01:19:35;;;;;;;33.85;23.08;;;6.40;67.40;;;;;;5013351;28;20108;-72
2021/12/20 01:22:03;;;;;;;33.75;24.25;;;6.40;67.20;;;;;;4995862;28;20395;-71
2021/12/20 01:24:29;;;;;;;31.35;22.95;;;6.40;67.20;;;;;;5013422;28;20030;-71
2021/12/20 01:26:54;;;;;;;33.88;23.13;;;6.40;67.20;;;;;;5013293;28;20376;-71
2021/12/20 01:29:20;;;;;;;33.25;23.10;;;6.50;67.30;;;;;;5013201;28;20088;-71
2021/12/20 01:31:46;;;;;;;32.35;22.35;;;6.50;67.20;;;;;;5013518;28;20033;-70
2021/12/20 01:34:12;;;;;;;28.58;21.02;;;6.50;67.10;;;;;;5013394;28;20113;-72
2021/12/20 01:36:38;;;;;;;31.35;21.77;;;6.40;67.10;;;;;;5013051;28;20052;-72
2021/12/20 01:39:04;;;;;;;34.63;21.65;;;6.50;67.10;;;;;;5012659;28;20026;-72
2021/12/20 01:41:30;;;;;;;29.52;21.15;;;6.40;66.90;;;;;;4995428;28;20022;-70
2021/12/20 01:43:55;;;;;;;32.58;21.80;;;6.40;67.00;;;;;;5013225;28;20057;-71
2021/12/20 01:46:23;;;;;;;32.22;21.52;;;6.40;67.00;;;;;;5013167;28;20060;-73
2021/12/20 01:48:49;;;;;;;30.83;22.00;;;6.50;67.10;;;;;;5012853;28;20034;-70
2021/12/20 01:51:33;;;;;;;31.13;22.25;;;6.40;67.00;;;;;;4995165;28;20359;-71
2021/12/20 01:53:59;;;;;;;33.10;23.05;;;6.40;67.20;;;;;;5013194;28;20014;-71
2021/12/20 01:56:25;;;;;;;30.33;21.55;;;6.40;67.10;;;;;;5012642;28;20475;-70
2021/12/20 01:58:51;;;;;;;31.00;21.83;;;6.40;67.50;;;;;;5013017;28;20030;-70
2021/12/20 02:03:46;;;;;;;35.80;23.02;;;6.50;67.20;;;;;;5013129;28;20068;-70
2021/12/20 02:06:25;;;;;;;32.90;21.95;;;6.40;66.80;;;;;;5013199;28;20030;-72
2021/12/20 02:08:51;;;;;;;30.08;22.08;;;6.40;66.80;;;;;;5013293;28;20529;-72
2021/12/20 02:11:20;;;;;;;29.48;21.25;;;6.40;67.00;;;;;;5012489;28;20022;-70
2021/12/20 02:13:46;;;;;;;30.10;21.58;;;6.40;67.00;;;;;;5012509;28;20387;-70
2021/12/20 02:16:11;;;;;;;29.90;21.00;;;6.40;67.30;;;;;;5012409;28;20026;-70
2021/12/20 02:18:37;;;;;;;33.97;22.75;;;6.40;67.20;;;;;;5012226;28;20106;-71
2021/12/20 02:21:04;;;;;;;34.92;22.63;;;6.30;67.00;;;;;;5012620;28;20069;-70
2021/12/20 02:23:29;;;;;;;32.60;23.17;;;6.30;67.20;;;;;;5012598;28;20563;-72
2021/12/20 02:25:55;;;;;;;38.85;24.45;;;6.30;68.10;;;;;;5012252;28;20101;-70
2021/12/20 02:28:23;;;;;;;33.88;23.75;;;6.30;67.50;;;;;;5012080;28;20427;-71
2021/12/20 02:39:16;;;;;;;32.58;23.20;;;6.20;67.30;;;;;;5012462;28;20091;-71
2021/12/20 02:41:42;;;;;;;35.60;24.80;;;6.20;67.70;;;;;;5012344;28;20109;-70
2021/12/20 02:44:16;;;;;;;34.33;24.80;;;6.10;67.60;;;;;;5012283;28;20065;-69
2021/12/20 02:46:50;;;;;;;36.88;24.02;;;6.10;67.50;;;;;;5012524;28;20054;-69
2021/12/20 02:49:18;;;;;;;35.65;24.75;;;6.10;67.60;;;;;;5012234;28;20054;-70
2021/12/20 02:51:45;;;;;;;34.70;24.38;;;6.10;67.60;;;;;;5015762;28;20068;-70
2021/12/20 02:54:13;;;;;;;35.60;23.83;;;6.10;67.60;;;;;;5015762;28;20179;-71
2021/12/20 02:56:41;;;;;;;32.85;23.88;;;6.10;67.70;;;;;;5015876;28;20033;-69
2021/12/20 02:59:07;;;;;;;34.80;23.90;;;6.20;67.80;;;;;;5016059;28;20113;-71
2021/12/20 03:01:35;;;;;;;35.60;24.63;;;6.10;68.00;;;;;;5015665;28;20022;-72
2021/12/20 03:04:01;;;;;;;37.40;24.35;;;6.10;68.00;;;;;;5015607;28;20033;-69
2021/12/20 03:06:44;;;;;;;36.85;23.67;;;6.10;68.30;;;;;;5015715;28;20542;-70
2021/12/20 03:09:14;;;;;;;33.85;23.70;;;6.00;69.70;;;;;;5015713;28;20038;-70
2021/12/20 03:11:41;;;;;;;36.22;24.17;;;6.00;68.70;;;;;;5015939;28;20025;-72
2021/12/20 03:14:43;;;;;;;35.97;24.92;;;6.00;68.70;;;;;;5016070;28;20018;-72
2021/12/20 03:16:59;;;;;;;36.75;24.55;;;6.00;69.00;;;;;;5015202;28;20018;-72
2021/12/20 03:19:26;;;;;;;36.28;23.08;;;6.00;69.40;;;;;;4997652;28;20068;-72
2021/12/20 03:21:52;;;;;;;33.80;24.10;;;6.00;68.90;;;;;;5015475;28;20029;-70
2021/12/20 03:24:19;;;;;;;33.25;24.75;;;5.90;69.20;;;;;;5015098;28;20030;-71
2021/12/20 03:26:45;;;;;;;37.90;25.38;;;5.80;69.50;;;;;;5015149;28;20102;-70
2021/12/20 03:29:11;;;;;;;36.53;25.90;;;5.80;69.30;;;;;;5015237;28;20124;-70
2021/12/20 03:31:37;;;;;;;37.78;25.50;;;5.80;69.90;;;;;;4997435;28;20025;-69
2021/12/20 03:34:04;;;;;;;34.00;23.95;;;5.80;70.30;;;;;;5015044;28;20087;-71
2021/12/20 03:36:30;;;;;;;35.75;25.13;;;5.80;70.60;;;;;;5015094;28;20046;-73
2021/12/20 03:38:56;;;;;;;37.50;25.80;;;5.80;70.10;;;;;;5015034;28;20463;-71
2021/12/20 03:41:22;;;;;;;38.35;25.77;;;5.70;70.20;;;;;;5015324;28;20152;-73
2021/12/20 03:43:48;;;;;;;33.13;25.50;;;5.70;70.20;;;;;;5015170;28;20030;-71
2021/12/20 03:46:15;;;;;;;37.40;26.60;;;5.70;70.90;;;;;;5015106;28;20447;-72
2021/12/20 03:48:41;;;;;;;38.35;25.73;;;5.70;70.20;;;;;;5014801;28;20030;-71
2021/12/20 03:51:07;;;;;;;40.97;27.55;;;5.70;70.70;;;;;;5014813;28;20116;-70
2021/12/20 03:53:34;;;;;;;38.47;26.63;;;5.70;70.40;;;;;;5014841;28;20494;-70
2021/12/20 03:56:02;;;;;;;41.45;26.92;;;5.70;70.20;;;;;;5014700;28;20471;-70
2021/12/20 03:58:30;;;;;;;43.63;28.35;;;5.70;70.00;;;;;;5014429;28;20558;-71
2021/12/20 04:01:01;;;;;;;39.22;27.92;;;5.80;69.90;;;;;;5014177;28;20026;-71
2021/12/20 04:03:30;;;;;;;39.05;28.20;;;5.70;69.70;;;;;;4996835;28;20026;-70
2021/12/20 04:05:57;;;;;;;41.15;28.65;;;5.60;69.80;;;;;;4996931;28;20085;-71
2021/12/20 04:08:23;;;;;;;40.67;28.70;;;5.60;70.00;;;;;;5014540;28;20042;-70
2021/12/20 04:10:49;;;;;;;39.22;29.05;;;5.50;70.10;;;;;;5014397;28;20430;-71
2021/12/20 04:13:15;;;;;;;37.38;27.70;;;5.50;70.10;;;;;;5014262;28;20026;-70
2021/12/20 04:15:41;;;;;;;41.38;28.70;;;5.50;70.50;;;;;;5014475;28;20022;-70
2021/12/20 04:18:06;;;;;;;39.03;28.08;;;5.50;70.20;;;;;;5014222;28;20026;-70
2021/12/20 04:20:33;;;;;;;39.97;28.58;;;5.40;70.50;;;;;;4996673;28;20030;-70
2021/12/20 04:22:59;;;;;;;35.95;25.95;;;5.40;70.90;;;;;;5014289;28;20022;-70
2021/12/20 04:25:25;;;;;;;40.17;28.30;;;5.40;70.40;;;;;;4996828;28;20022;-69
2021/12/20 04:27:50;;;;;;;35.67;26.17;;;5.30;70.90;;;;;;5013916;28;20504;-70
2021/12/20 04:30:16;;;;;;;45.33;27.20;;;5.30;70.50;;;;;;5013278;28;20104;-70
2021/12/20 04:32:45;;;;;;;35.20;25.75;;;5.30;70.50;;;;;;5013953;28;20431;-70
2021/12/20 04:35:15;;;;;;;35.50;25.65;;;5.30;70.30;;;;;;5014076;28;20026;-71
2021/12/20 04:37:44;;;;;;;36.90;25.95;;;5.30;70.60;;;;;;5007821;28;20105;-70
2021/12/20 04:40:16;;;;;;;36.35;25.55;;;5.30;70.80;;;;;;5011421;28;20041;-70
2021/12/20 04:42:41;;;;;;;35.55;24.85;;;5.40;70.50;;;;;;5013832;28;20052;-70
2021/12/20 04:45:07;;;;;;;37.35;26.95;;;5.40;70.00;;;;;;5013888;28;20483;-70
2021/12/20 04:47:34;;;;;;;36.00;24.75;;;5.40;70.00;;;;;;5013987;28;20022;-69
2021/12/20 04:50:00;;;;;;;37.08;24.98;;;5.40;70.00;;;;;;5013390;28;20050;-70
2021/12/20 04:52:26;;;;;;;37.83;25.50;;;5.40;70.10;;;;;;5003085;28;20030;-70
2021/12/20 04:54:52;;;;;;;35.13;25.90;;;5.30;70.70;;;;;;5008801;28;20022;-72
2021/12/20 04:57:18;;;;;;;36.15;25.73;;;5.30;70.20;;;;;;5013646;28;20486;-72
2021/12/20 04:59:44;;;;;;;33.97;24.92;;;5.30;70.00;;;;;;5013857;28;20022;-72
2021/12/20 05:02:10;;;;;;;29.98;22.88;;;5.30;70.10;;;;;;5013386;28;20033;-72
2021/12/20 05:04:35;;;;;;;32.38;23.25;;;5.30;70.40;;;;;;5013221;28;20026;-72
2021/12/20 05:07:03;;;;;;;32.85;23.00;;;5.30;70.20;;;;;;5013302;28;20033;-71
2021/12/20 05:09:35;;;;;;;32.50;22.40;;;5.30;70.50;;;;;;4995285;28;20034;-71
2021/12/20 05:12:10;;;;;;;35.50;23.05;;;5.40;70.50;;;;;;5012699;28;20045;-73
2021/12/20 05:14:36;;;;;;;32.53;22.95;;;5.40;70.10;;;;;;5013132;28;20037;-72
2021/12/20 05:17:02;;;;;;;34.00;21.98;;;5.40;70.00;;;;;;5012981;28;20026;-71
2021/12/20 05:19:28;;;;;;;34.13;23.13;;;5.40;70.20;;;;;;5012852;28;20143;-72
2021/12/20 05:21:56;;;;;;;31.00;22.40;;;5.30;70.20;;;;;;4995323;28;20423;-72
2021/12/20 05:24:22;;;;;;;31.05;22.95;;;5.30;70.90;;;;;;5012812;28;20038;-71
2021/12/20 05:26:47;;;;;;;29.63;21.75;;;5.30;70.70;;;;;;5012917;28;20029;-72
2021/12/20 05:29:13;;;;;;;33.70;23.00;;;5.40;70.60;;;;;;5012830;28;20092;-73
2021/12/20 05:31:39;;;;;;;31.67;21.98;;;5.50;70.60;;;;;;5012855;28;20406;-72
2021/12/20 05:34:05;;;;;;;34.83;21.33;;;5.50;70.70;;;;;;5012822;28;20030;-72
2021/12/20 05:36:31;;;;;;;33.38;22.90;;;5.40;69.90;;;;;;5012697;28;20030;-73
2021/12/20 05:38:57;;;;;;;31.35;21.02;;;5.40;70.00;;;;;;5012628;28;20451;-72
2021/12/20 05:41:22;;;;;;;31.95;21.42;;;5.50;70.90;;;;;;5012492;28;20109;-71
2021/12/20 05:43:49;;;;;;;30.30;21.70;;;5.40;70.90;;;;;;5012760;28;20026;-72
2021/12/20 05:46:15;;;;;;;34.25;21.80;;;5.40;70.60;;;;;;5012637;28;20113;-72
2021/12/20 05:48:41;;;;;;;34.08;22.45;;;5.40;70.70;;;;;;5012477;28;20176;-72
2021/12/20 05:51:06;;;;;;;31.17;21.17;;;5.40;70.90;;;;;;5012667;28;20038;-72
2021/12/20 05:53:32;;;;;;;31.73;21.98;;;5.40;70.90;;;;;;5012817;28;20447;-71
2021/12/20 05:55:58;;;;;;;29.95;20.45;;;5.40;71.30;;;;;;5013031;28;20048;-72
2021/12/20 05:58:24;;;;;;;29.90;21.23;;;5.40;71.00;;;;;;5013292;28;20030;-72
2021/12/20 06:00:49;;;;;;;33.35;21.55;;;5.40;71.00;;;;;;5013037;28;20022;-72
2021/12/20 06:03:15;;;;;;;32.40;21.23;;;5.40;71.00;;;;;;5012640;28;20030;-71
2021/12/20 06:05:42;;;;;;;32.08;21.63;;;5.40;71.40;;;;;;5012624;28;20045;-73
2021/12/20 06:08:11;;;;;;;35.88;23.02;;;5.40;71.20;;;;;;5012510;28;20053;-71
2021/12/20 06:10:37;;;;;;;33.28;22.17;;;5.40;71.20;;;;;;5012612;28;20033;-72
2021/12/20 06:13:04;;;;;;;35.58;23.20;;;5.30;71.40;;;;;;4994691;28;20030;-72
2021/12/20 06:15:30;;;;;;;36.70;23.67;;;5.30;71.80;;;;;;4995119;28;20041;-72
2021/12/20 06:17:56;;;;;;;37.05;23.02;;;5.30;71.70;;;;;;5012490;28;20030;-72
2021/12/20 06:20:22;;;;;;;31.20;22.52;;;5.30;71.70;;;;;;5012496;28;20088;-73
2021/12/20 06:22:48;;;;;;;33.67;23.70;;;5.30;72.00;;;;;;5012607;28;20120;-72
2021/12/20 06:25:14;;;;;;;35.67;23.00;;;5.30;72.20;;;;;;5016025;28;20041;-72
2021/12/20 06:27:40;;;;;;;30.83;21.45;;;5.20;72.10;;;;;;5016146;28;20488;-71
2021/12/20 06:30:10;;;;;;;32.28;21.67;;;5.20;72.00;;;;;;4998411;28;20042;-72
2021/12/20 06:32:41;;;;;;;30.08;22.00;;;5.20;72.10;;;;;;5016416;28;20053;-72
2021/12/20 06:35:07;;;;;;;31.77;21.63;;;5.30;72.60;;;;;;5016236;28;20033;-72
2021/12/20 06:37:33;;;;;;;30.25;20.73;;;5.10;72.20;;;;;;5014598;28;20037;-73
2021/12/20 06:40:00;;;;;;;33.90;22.30;;;5.10;72.70;;;;;;5016019;28;20068;-71
2021/12/20 06:42:26;;;;;;;34.63;21.60;;;5.10;73.00;;;;;;5016010;28;20431;-72
2021/12/20 06:44:52;;;;;;;30.80;20.80;;;5.10;72.60;;;;;;5015532;28;20117;-71
2021/12/20 06:47:19;;;;;;;31.42;21.85;;;5.20;72.70;;;;;;4997888;28;20030;-73
2021/12/20 06:49:45;;;;;;;34.55;21.95;;;5.20;72.00;;;;;;5015707;28;20058;-72
2021/12/20 06:52:12;;;;;;;27.92;21.30;;;5.20;72.00;;;;;;5015816;28;20045;-73
2021/12/20 06:54:38;;;;;;;34.83;21.67;;;5.20;72.10;;;;;;5011879;28;20029;-75
2021/12/20 06:57:04;;;;;;;30.73;21.30;;;5.20;72.10;;;;;;5013620;28;20029;-71
2021/12/20 06:59:30;;;;;;;34.80;20.45;;;5.20;72.30;;;;;;5015663;28;20037;-71
2021/12/20 07:01:55;;;;;;;30.75;20.70;;;5.20;72.20;;;;;;5015625;28;20045;-71
2021/12/20 07:04:21;;;;;;;32.60;20.45;;;5.20;72.90;;;;;;5009607;28;20042;-73
2021/12/20 07:06:47;;;;;;;31.52;20.60;;;5.30;72.30;;;;;;5012886;28;20026;-70
2021/12/20 07:09:13;;;;;;;28.98;19.92;;;5.40;72.50;;;;;;5005753;28;20080;-70
2021/12/20 07:11:43;;;;;;;31.40;21.25;;;5.50;71.60;;;;;;5000797;28;20057;-72
2021/12/20 07:14:10;;;;;;;29.25;20.02;;;5.60;71.90;;;;;;4995636;28;20057;-74
2021/12/20 07:16:36;;;;;;;32.20;21.00;;;5.80;71.20;;;;;;4995780;28;20038;-75
2021/12/20 07:19:05;;;;;;;27.70;20.38;;;5.80;70.60;;;;;;4995726;28;20029;-71
2021/12/20 07:21:30;;;;;;;31.88;20.80;;;5.90;70.50;;;;;;4978120;28;20034;-70
2021/12/20 07:23:56;;;;;;;35.88;21.50;;;6.10;70.40;;;;;;4995621;28;20196;-69
2021/12/20 07:26:23;;;;;;;29.20;19.80;;;6.30;69.90;;;;;;5004312;28;20061;-72
2021/12/20 07:28:48;;;;;;;28.50;21.05;;;6.30;69.00;;;;;;5014845;28;20049;-71
2021/12/20 07:31:15;;;;;;;34.10;20.52;;;6.30;68.70;;;;;;5014948;28;20061;-70
2021/12/20 07:33:42;;;;;;;30.13;20.95;;;6.40;69.00;;;;;;5008946;28;20383;-71
2021/12/20 07:36:08;;;;;;;34.17;20.17;;;6.50;68.90;;;;;;4990567;28;20037;-72
2021/12/20 07:38:35;;;;;;;35.08;20.55;;;6.50;69.00;;;;;;5008897;28;20460;-69
2021/12/20 07:41:01;;;;;;;32.22;20.60;;;6.60;68.80;;;;;;5014814;28;20038;-70
2021/12/20 07:43:27;;;;;;;28.02;21.02;;;6.70;68.50;;;;;;5015088;28;20441;-71
2021/12/20 07:45:53;;;;;;;36.72;21.50;;;6.70;68.10;;;;;;5014498;28;20033;-68
2021/12/20 07:48:21;;;;;;;35.95;20.25;;;6.70;67.90;;;;;;5014708;28;20034;-69
2021/12/20 07:50:48;;;;;;;32.83;20.45;;;6.60;67.40;;;;;;4997584;28;20125;-70
2021/12/20 07:53:15;;;;;;;35.80;20.60;;;6.70;68.20;;;;;;5012306;28;20444;-68
2021/12/20 07:55:41;;;;;;;30.27;20.88;;;6.70;68.00;;;;;;5014776;28;20025;-69
2021/12/20 07:58:07;;;;;;;37.10;21.80;;;6.70;67.60;;;;;;5014659;28;20021;-68
2021/12/20 08:00:33;;;;;;;34.22;22.70;;;6.80;68.10;;;;;;5014619;28;20105;-68
2021/12/20 08:03:00;;;;;;;39.97;23.52;;;6.70;67.50;;;;;;5014444;28;20026;-69
2021/12/20 08:05:28;;;;;;;39.08;23.40;;;6.70;67.30;;;;;;4996700;28;20115;-68
2021/12/20 08:07:55;;;;;;;42.25;23.08;;;6.60;67.20;;;;;;5014524;28;20045;-69
2021/12/20 08:10:24;;;;;;;40.90;21.48;;;6.60;67.80;;;;;;5014234;28;20038;-69
2021/12/20 08:12:51;;;;;;;40.38;22.35;;;6.80;68.10;;;;;;5013986;28;20026;-68
2021/12/20 08:15:17;;;;;;;40.00;22.85;;;6.80;67.70;;;;;;5011173;28;20108;-68
2021/12/20 08:17:43;;;;;;;37.78;22.40;;;6.80;68.00;;;;;;5013942;28;20053;-69
2021/12/20 08:20:11;;;;;;;35.75;22.00;;;6.90;67.90;;;;;;5014289;28;20061;-69
2021/12/20 08:22:37;;;;;;;34.17;22.85;;;7.00;68.10;;;;;;5014089;28;20175;-70
2021/12/20 08:25:04;;;;;;;31.52;21.45;;;7.00;67.80;;;;;;5014246;28;20357;-69
2021/12/20 08:27:30;;;;;;;34.00;21.23;;;7.00;67.90;;;;;;5013715;28;20030;-69
2021/12/20 08:29:56;;;;;;;32.67;20.58;;;7.10;67.60;;;;;;5013701;28;20033;-68
2021/12/20 08:32:22;;;;;;;43.35;21.42;;;7.10;67.80;;;;;;5014047;28;20034;-68
2021/12/20 08:34:48;;;;;;;33.90;20.50;;;7.10;67.70;;;;;;5014146;28;20046;-69
2021/12/20 08:37:14;;;;;;;34.72;19.95;;;7.20;68.00;;;;;;5014076;28;20101;-68
2021/12/20 08:39:39;;;;;;;31.90;19.20;;;7.20;68.00;;;;;;5014035;28;20030;-69
2021/12/20 08:42:06;;;;;;;29.20;18.85;;;7.30;68.00;;;;;;5013756;28;20018;-68
2021/12/20 08:44:33;;;;;;;28.50;19.17;;;7.40;68.10;;;;;;5013536;28;20440;-69
2021/12/20 08:46:59;;;;;;;31.90;17.95;;;7.40;67.90;;;;;;5013633;28;20034;-69
2021/12/20 08:49:26;;;;;;;26.08;17.58;;;7.50;68.10;;;;;;4995510;28;20050;-69
2021/12/20 08:51:53;;;;;;;26.13;18.58;;;7.60;68.20;;;;;;5013422;28;20104;-68
2021/12/20 08:54:19;;;;;;;28.95;17.92;;;7.70;68.20;;;;;;5013495;28;20026;-73
2021/12/20 08:56:44;;;;;;;33.55;18.75;;;7.80;68.40;;;;;;5013505;28;20037;-71
2021/12/20 08:59:11;;;;;;;28.90;19.17;;;7.90;68.50;;;;;;5013553;28;20029;-67
2021/12/20 09:01:37;;;;;;;34.83;19.13;;;7.90;68.10;;;;;;5013480;28;20033;-69
2021/12/20 09:04:07;;;;;;;31.15;18.85;;;7.90;68.10;;;;;;5013372;28;20041;-68
2021/12/20 09:06:37;;;;;;;28.27;18.75;;;8.00;68.10;;;;;;5013066;28;20029;-69
2021/12/20 09:09:03;;;;;;;29.10;19.25;;;8.10;68.10;;;;;;4995194;28;20029;-68
2021/12/20 09:11:29;;;;;;;28.27;20.23;;;8.20;68.10;;;;;;5013464;28;20018;-70
2021/12/20 09:13:55;;;;;;;31.30;20.15;;;8.30;68.00;;;;;;5013445;28;20018;-69
2021/12/20 09:16:21;;;;;;;36.83;20.70;;;8.40;67.90;;;;;;5013225;28;20475;-68
2021/12/20 09:18:48;;;;;;;29.48;20.48;;;8.50;67.80;;;;;;5013423;28;20021;-68
2021/12/20 09:21:15;;;;;;;37.35;22.33;;;8.60;67.70;;;;;;5013173;28;20498;-68
2021/12/20 09:23:41;;;;;;;28.30;20.88;;;8.70;67.40;;;;;;5012633;28;20084;-69
2021/12/20 09:26:07;;;;;;;33.55;21.10;;;8.80;67.40;;;;;;5012878;28;20029;-69
2021/12/20 09:28:34;;;;;;;37.33;20.52;;;9.00;67.10;;;;;;5013020;28;20030;-69
2021/12/20 09:31:01;;;;;;;35.67;21.40;;;9.20;66.70;;;;;;5012970;28;20480;-70
2021/12/20 09:33:27;;;;;;;34.05;21.50;;;9.40;66.40;;;;;;5012928;28;20033;-69
2021/12/20 09:35:53;;;;;;;30.73;20.63;;;9.60;66.20;;;;;;5013388;28;20038;-70
2021/12/20 09:38:22;;;;;;;29.63;19.48;;;9.80;65.90;;;;;;5012631;28;20533;-68
2021/12/20 09:43:48;;;;;;;29.20;20.00;;;10.20;64.60;;;;;;5012551;28;20069;-70
2021/12/20 09:46:18;;;;;;;29.80;20.25;;;10.40;64.10;;;;;;5012653;28;20558;-68
2021/12/20 09:48:46;;;;;;;32.53;20.45;;;10.60;64.20;;;;;;4994743;28;20037;-69
2021/12/20 09:51:14;;;;;;;28.67;18.88;;;10.80;64.50;;;;;;5012796;28;20034;-71
2021/12/20 09:53:40;;;;;;;30.48;19.30;;;10.80;63.20;;;;;;4994833;28;20034;-71
2021/12/20 09:56:07;;;;;;;27.33;17.17;;;10.90;63.00;;;;;;5012821;28;20531;-68
2021/12/20 09:58:36;;;;;;;31.20;19.38;;;11.00;63.00;;;;;;5011920;28;20022;-69
2021/12/20 10:01:04;;;;;;;27.83;19.10;;;11.10;63.20;;;;;;5012420;28;20125;-69
2021/12/20 10:03:30;;;;;;;28.15;18.42;;;11.10;62.90;;;;;;4994809;28;20026;-70
2021/12/20 10:05:58;;;;;;;31.38;20.25;;;11.20;63.10;;;;;;5012294;28;20380;-69
2021/12/20 10:08:38;;;;;;;27.80;18.35;;;11.20;63.20;;;;;;4994524;28;20042;-70
2021/12/20 10:11:16;;;;;;;29.55;18.45;;;11.20;63.00;;;;;;5012531;28;20356;-67
2021/12/20 10:13:42;;;;;;;31.17;18.73;;;11.20;63.00;;;;;;5012145;28;20061;-68
2021/12/20 10:16:20;;;;;;;27.13;17.73;;;11.20;63.00;;;;;;5012498;28;20053;-68
2021/12/20 10:18:46;;;;;;;24.17;17.27;;;11.20;63.20;;;;;;5011981;28;20030;-68
2021/12/20 10:21:13;;;;;;;31.48;18.55;;;11.30;63.40;;;;;;5011938;28;20439;-68
2021/12/20 10:23:42;;;;;;;29.08;17.58;;;11.30;63.10;;;;;;5012180;28;20026;-70
2021/12/20 10:26:19;;;;;;;26.30;18.10;;;11.30;63.20;;;;;;5012104;28;20026;-69
2021/12/20 10:28:53;;;;;;;25.27;18.23;;;11.40;63.30;;;;;;5012071;28;20037;-70
2021/12/20 10:31:21;;;;;;;31.50;18.63;;;11.50;63.20;;;;;;5011883;28;20491;-70
2021/12/20 10:33:59;;;;;;;29.88;18.92;;;11.60;63.00;;;;;;5012177;28;20442;-67
2021/12/20 10:36:25;;;;;;;32.25;18.92;;;11.60;62.70;;;;;;5012244;28;20107;-68
2021/12/20 10:38:57;;;;;;;29.33;19.08;;;11.70;63.00;;;;;;5011953;28;20048;-70
2021/12/20 10:41:33;;;;;;;29.13;18.67;;;11.70;62.50;;;;;;5012519;28;20026;-68
2021/12/20 10:44:03;;;;;;;34.85;19.23;;;11.80;62.70;;;;;;5012091;28;20105;-70
2021/12/20 10:46:30;;;;;;;33.88;18.95;;;11.90;62.30;;;;;;5012170;28;20025;-69
2021/12/20 10:49:08;;;;;;;25.75;18.10;;;12.00;62.10;;;;;;5011278;28;20474;-68
2021/12/20 10:51:42;;;;;;;30.13;19.00;;;12.00;62.20;;;;;;5011736;28;20053;-69
2021/12/20 10:54:12;;;;;;;26.60;19.25;;;12.00;61.80;;;;;;5011822;28;20077;-70
2021/12/20 10:56:46;;;;;;;28.00;18.63;;;12.00;61.90;;;;;;5012024;28;20026;-68
2021/12/20 10:59:12;;;;;;;;;;;12.00;61.80;;;;;;5012724;28;20357;-69
2021/12/20 11:04:26;;;;;;;33.15;20.75;;;12.10;61.90;;;;;;5011845;28;20062;-69
2021/12/20 11:09:39;;;;;;;32.97;20.02;;;12.20;61.70;;;;;;5011524;28;20106;-69
2021/12/20 11:12:11;;;;;;;31.38;20.08;;;12.20;61.60;;;;;;5014506;28;20066;-69
2021/12/20 11:14:39;;;;;;;33.10;21.38;;;12.20;61.50;;;;;;5015283;28;20073;-71
2021/12/20 11:17:07;;;;;;;31.77;20.23;;;12.30;61.50;;;;;;5015266;28;20018;-68
2021/12/20 11:19:34;;;;;;;36.38;20.33;;;12.30;61.20;;;;;;5015061;28;20040;-71
2021/12/20 11:22:02;;;;;;;28.60;19.85;;;12.20;60.90;;;;;;5015176;28;20053;-70
2021/12/20 11:24:31;;;;;;;31.10;21.02;;;12.20;61.80;;;;;;5015192;28;20500;-71
2021/12/20 11:26:59;;;;;;;29.13;20.27;;;12.30;61.40;;;;;;5015020;28;20122;-71
2021/12/20 11:29:26;;;;;;;31.85;21.33;;;12.30;61.20;;;;;;5014820;28;20042;-72
2021/12/20 11:31:53;;;;;;;35.30;22.08;;;12.50;61.10;;;;;;5015141;28;20053;-69
2021/12/20 11:34:19;;;;;;;30.52;21.08;;;12.50;61.10;;;;;;5015033;28;20072;-71
2021/12/20 11:36:44;;;;;;;30.30;20.27;;;12.60;60.80;;;;;;5014775;28;20030;-70
2021/12/20 11:39:11;;;;;;;33.40;21.50;;;12.60;60.80;;;;;;4997019;28;20145;-69
2021/12/20 11:41:37;;;;;;;33.03;22.23;;;12.70;60.60;;;;;;5014744;28;20379;-69
2021/12/20 11:44:06;;;;;;;37.50;21.25;;;12.70;60.50;;;;;;5014744;28;20024;-69
2021/12/20 11:46:53;;;;;;;34.15;20.90;;;12.70;60.30;;;;;;5014838;28;20048;-68
2021/12/20 11:49:23;;;;;;;29.38;20.73;;;12.80;60.10;;;;;;5048125;23;20515;-71
2021/12/20 11:52:00;;;;;;;34.10;21.23;;;12.80;60.30;;;;;;5014648;28;20026;-70
2021/12/20 11:54:32;;;;;;;34.10;21.25;;;12.80;60.20;;;;;;5014800;28;20117;-70
2021/12/20 11:56:58;;;;;;;30.33;21.02;;;12.80;60.40;;;;;;5015177;28;20424;-69
2021/12/20 11:59:59;;;;;;;32.17;20.90;;;12.80;60.70;;;;;;5014900;28;20052;-70
2021/12/20 12:02:38;;;;;;;33.75;20.85;;;12.80;60.40;;;;;;4993009;28;20114;-70
2021/12/20 12:05:07;;;;;;;35.10;22.67;;;12.90;60.50;;;;;;5014504;28;20368;-69
2021/12/20 12:07:36;;;;;;;29.70;19.58;;;12.90;60.70;;;;;;5014538;28;20106;-70
2021/12/20 12:10:12;;;;;;;29.25;18.13;;;12.90;60.30;;;;;;5014677;28;20045;-71
2021/12/20 12:12:42;;;;;;;33.03;18.15;;;13.00;60.70;;;;;;5014445;28;20411;-69
2021/12/20 12:15:39;;;;;;;27.17;16.08;;;13.00;60.30;;;;;;5014579;28;20030;-71
2021/12/20 12:18:10;;;;;;;33.25;18.27;;;13.00;60.80;;;;;;5014340;28;20030;-71
2021/12/20 12:20:36;;;;;;;33.75;19.13;;;13.00;60.90;;;;;;5014278;28;20022;-70
2021/12/20 12:23:15;;;;;;;29.40;17.40;;;13.00;60.80;;;;;;5013895;28;20224;-70
2021/12/20 12:25:46;;;;;;;31.83;17.05;;;13.00;60.90;;;;;;5014506;28;20050;-70
2021/12/20 12:28:14;;;;;;;31.48;18.77;;;13.10;60.90;;;;;;5014498;28;20431;-71
2021/12/20 12:30:41;;;;;;;32.30;18.20;;;13.10;60.70;;;;;;5014330;28;20407;-71
2021/12/20 12:33:13;;;;;;;34.35;19.85;;;13.10;60.80;;;;;;5014420;28;20018;-71
2021/12/20 12:35:39;;;;;;;32.83;20.05;;;13.20;61.00;;;;;;5014382;28;20095;-71
2021/12/20 12:38:22;;;;;;;36.35;20.23;;;13.10;61.10;;;;;;5014186;28;20432;-69
2021/12/20 12:40:52;;;;;;;32.67;20.50;;;13.20;62.00;;;;;;5013976;28;20106;-70
2021/12/20 12:43:21;;;;;;;35.67;20.58;;;13.20;61.00;;;;;;5013649;28;20026;-73
2021/12/20 12:45:52;;;;;;;33.55;20.13;;;13.20;61.00;;;;;;5013594;28;20531;-70
2021/12/20 12:48:49;;;;;;;31.17;20.50;;;13.30;60.90;;;;;;5013562;28;20034;-70
2021/12/20 12:51:20;;;;;;;31.00;19.77;;;13.30;61.90;;;;;;5014073;28;20029;-70
2021/12/20 12:53:53;;;;;;;37.88;16.15;;;13.40;61.30;;;;;;5014213;28;20061;-71
2021/12/20 12:56:38;;;;;;;23.48;15.35;;;13.30;61.00;;;;;;5013634;28;20179;-72
2021/12/20 12:59:20;;;;;;;26.58;14.85;;;13.30;61.10;;;;;;5013609;28;20030;-72
2021/12/20 13:01:57;;;;;;;20.92;12.57;;;13.40;61.00;;;;;;5014009;28;20110;-70
2021/12/20 13:04:47;;;;;;;21.00;11.45;;;13.30;61.00;;;;;;5013548;28;20451;-71